createdAt,value
2018-12-25T00:05:05.616Z,101008.65
2018-12-25T00:11:10.421Z,101009.13
2018-12-25T00:17:15.051Z,101002.23
2018-12-25T00:23:19.636Z,100993.55
2018-12-25T00:29:24.227Z,100998.48
2018-12-25T00:35:28.767Z,101011.36
2018-12-25T00:41:33.332Z,101005.16
2018-12-25T00:47:37.893Z,101003.83
2018-12-25T00:53:42.463Z,101004.00
2018-12-25T00:59:47.065Z,101000.48
2018-12-25T01:05:51.716Z,101007.59
2018-12-25T01:13:02.461Z,101026.54
2018-12-25T01:19:07.021Z,101014.22
2018-12-25T01:25:11.676Z,101012.55
2018-12-25T01:31:16.237Z,101014.09
2018-12-25T01:37:20.985Z,101014.61
2018-12-25T01:43:25.570Z,101026.66
2018-12-25T01:49:31.883Z,101037.77
2018-12-25T01:55:36.434Z,101047.98
2018-12-25T02:01:41.051Z,101046.51
2018-12-25T02:07:45.605Z,101037.92
2018-12-25T02:13:50.314Z,101036.87
2018-12-25T02:19:54.978Z,101028.33
2018-12-25T02:25:59.556Z,101032.73
2018-12-25T02:32:04.200Z,101019.62
2018-12-25T02:38:08.834Z,101017.81
2018-12-25T02:44:13.416Z,101003.63
2018-12-25T02:50:19.030Z,100996.49
2018-12-25T02:56:23.611Z,101004.20
2018-12-25T03:02:28.161Z,101005.44
2018-12-25T03:08:32.715Z,101003.14
2018-12-25T03:14:37.292Z,100997.83
2018-12-25T03:20:41.851Z,100988.41
2018-12-25T03:26:46.409Z,100982.38
2018-12-25T03:32:51.057Z,100978.69
2018-12-25T03:38:55.605Z,100985.55
2018-12-25T03:45:00.496Z,100974.58
2018-12-25T03:51:05.111Z,100980.59
2018-12-25T03:57:09.654Z,100975.42
2018-12-25T04:03:14.223Z,100968.14
2018-12-25T04:09:19.634Z,100969.77
2018-12-25T04:15:24.191Z,100966.48
2018-12-25T04:21:28.761Z,100966.77
2018-12-25T04:27:33.324Z,100974.59
2018-12-25T04:33:37.873Z,100966.63
2018-12-25T04:39:42.457Z,100966.68
2018-12-25T04:45:47.010Z,100963.98
2018-12-25T04:51:51.594Z,100964.45
2018-12-25T04:57:56.148Z,100960.75
2018-12-25T05:04:00.783Z,100965.09
2018-12-25T05:10:06.538Z,100975.20
2018-12-25T05:16:11.101Z,100984.62
2018-12-25T05:22:15.666Z,100989.94
2018-12-25T05:28:21.713Z,100978.02
2018-12-25T05:34:26.283Z,100983.31
2018-12-25T05:40:30.844Z,100974.25
2018-12-25T05:46:35.413Z,100973.17
2018-12-25T05:52:39.988Z,100977.31
2018-12-25T05:58:44.540Z,100986.73
2018-12-25T06:04:50.825Z,100982.53
2018-12-25T06:10:55.382Z,100979.12
2018-12-25T06:16:59.946Z,100978.90
2018-12-25T06:23:04.499Z,100980.45
2018-12-25T06:29:09.099Z,100980.67
2018-12-25T06:35:13.708Z,100974.56
2018-12-25T06:41:18.278Z,100972.36
2018-12-25T06:47:22.992Z,100955.35
2018-12-25T06:53:27.649Z,100953.50
2018-12-25T06:59:32.200Z,100960.55
2018-12-25T07:05:36.772Z,100956.55
2018-12-25T07:11:41.330Z,100956.06
2018-12-25T07:17:45.911Z,100955.80
2018-12-25T07:23:50.476Z,100944.21
2018-12-25T07:29:55.033Z,100943.14
2018-12-25T07:35:59.582Z,100943.50
2018-12-25T07:42:04.148Z,100948.59
2018-12-25T07:48:08.718Z,100946.87
2018-12-25T07:54:13.307Z,100939.39
2018-12-25T08:00:19.570Z,100950.53
2018-12-25T08:06:24.244Z,100936.06
2018-12-25T08:12:28.801Z,100939.69
2018-12-25T08:18:33.372Z,100936.80
2018-12-25T08:24:37.935Z,100956.36
2018-12-25T08:30:42.496Z,100953.09
2018-12-25T08:36:47.053Z,100937.64
2018-12-25T08:42:52.323Z,100927.25
2018-12-25T08:48:56.865Z,100924.95
2018-12-25T08:55:01.423Z,100940.64
2018-12-25T09:01:06.065Z,100935.82
2018-12-25T09:07:10.616Z,100938.84
2018-12-25T09:13:15.172Z,100932.80
2018-12-25T09:19:19.745Z,100928.58
2018-12-25T09:25:24.305Z,100949.82
2018-12-25T09:31:28.877Z,100966.38
2018-12-25T09:37:33.485Z,100969.89
2018-12-25T09:43:38.046Z,100975.42
2018-12-25T09:49:42.674Z,100973.03
2018-12-25T09:55:47.222Z,100963.22
2018-12-25T10:01:51.783Z,100975.31
2018-12-25T10:07:56.434Z,100975.42
2018-12-25T10:14:00.984Z,100968.30
2018-12-25T10:20:05.963Z,100962.49
2018-12-25T10:26:10.597Z,100983.50
2018-12-25T10:32:15.155Z,100988.47
2018-12-25T10:38:19.734Z,100983.14
2018-12-25T10:44:24.279Z,100973.70
2018-12-25T10:50:28.839Z,100971.48
2018-12-25T10:56:33.407Z,100960.36
2018-12-25T11:02:37.972Z,100956.50
2018-12-25T11:08:42.514Z,100962.44
2018-12-25T11:14:47.078Z,100961.47
2018-12-25T11:20:52.201Z,100949.36
2018-12-25T11:26:56.767Z,100943.69
2018-12-25T11:33:01.320Z,100927.21
2018-12-25T11:39:07.102Z,100922.27
2018-12-25T11:45:11.738Z,100918.22
2018-12-25T11:51:16.301Z,100921.86
2018-12-25T11:57:20.858Z,100924.61
2018-12-25T12:03:25.427Z,100923.22
2018-12-25T12:09:30.087Z,100927.54
2018-12-25T12:15:34.640Z,100929.01
2018-12-25T12:21:39.206Z,100919.24
2018-12-25T12:27:43.763Z,100921.91
2018-12-25T12:33:48.345Z,100919.55
2018-12-25T12:39:52.980Z,100928.77
2018-12-25T12:45:57.610Z,100928.06
2018-12-25T12:52:02.175Z,100937.38
2018-12-25T12:58:06.804Z,100940.75
2018-12-25T13:04:11.367Z,100934.62
2018-12-25T13:10:15.918Z,100942.47
2018-12-25T13:16:20.496Z,100923.38
2018-12-25T13:22:25.043Z,100914.03
2018-12-25T13:28:29.603Z,100912.87
2018-12-25T13:34:34.171Z,100916.94
2018-12-25T13:40:38.710Z,100919.03
2018-12-25T13:46:51.325Z,100922.36
2018-12-25T13:52:49.572Z,100924.25
2018-12-25T13:58:55.012Z,100933.74
2018-12-25T14:04:59.622Z,100937.59
2018-12-25T14:11:04.291Z,100933.50
2018-12-25T14:17:08.829Z,100937.03
2018-12-25T14:23:13.402Z,100925.96
2018-12-25T14:29:18.012Z,100934.19
2018-12-25T14:35:22.634Z,100927.51
2018-12-25T14:41:27.187Z,100915.14
2018-12-25T14:47:31.745Z,100914.66
2018-12-25T14:53:36.297Z,100924.73
2018-12-25T14:59:40.914Z,100930.03
2018-12-25T15:05:45.477Z,100932.34
2018-12-25T15:11:50.047Z,100922.92
2018-12-25T15:17:54.616Z,100932.23
2018-12-25T15:23:59.254Z,100938.12
2018-12-25T15:30:03.877Z,100936.72
2018-12-25T15:36:08.522Z,100927.32
2018-12-25T15:42:13.080Z,100928.92
2018-12-25T15:48:17.651Z,100936.71
2018-12-25T15:54:22.255Z,100930.93
2018-12-25T16:00:26.874Z,100931.61
2018-12-25T16:06:31.432Z,100925.58
2018-12-25T16:12:35.997Z,100937.94
2018-12-25T16:18:40.558Z,100932.61
2018-12-25T16:24:45.126Z,100932.34
2018-12-25T16:30:49.714Z,100932.20
2018-12-25T16:36:54.267Z,100936.33
2018-12-25T16:42:58.843Z,100935.42
2018-12-25T16:49:03.473Z,100936.69
2018-12-25T16:55:08.109Z,100937.17
2018-12-25T17:01:12.673Z,100940.08
2018-12-25T17:07:17.303Z,100931.67
2018-12-25T17:13:21.853Z,100935.84
2018-12-25T17:19:26.426Z,100933.67
2018-12-25T17:25:31.007Z,100930.34
2018-12-25T17:31:35.579Z,100930.30
2018-12-25T17:37:40.210Z,100937.00
2018-12-25T17:43:44.784Z,100946.31
2018-12-25T17:49:49.365Z,100945.37
2018-12-25T17:55:53.973Z,100939.42
2018-12-25T18:01:58.529Z,100942.42
2018-12-25T18:08:03.083Z,100944.70
2018-12-25T18:14:07.652Z,100945.83
2018-12-25T18:20:12.217Z,100941.83
2018-12-25T18:26:16.782Z,100944.70
2018-12-25T18:32:21.324Z,100951.99
2018-12-25T18:38:25.888Z,100957.95
2018-12-25T18:44:30.444Z,100952.30
2018-12-25T18:50:35.008Z,100957.41
2018-12-25T18:56:39.576Z,100959.41
2018-12-25T19:02:44.140Z,100961.59
2018-12-25T19:08:48.688Z,100953.14
2018-12-25T19:14:59.246Z,100951.32
2018-12-25T19:21:03.769Z,100956.50
2018-12-25T19:27:08.318Z,100960.53
2018-12-25T19:33:12.874Z,100970.55
2018-12-25T19:39:17.509Z,100962.73
2018-12-25T19:45:22.975Z,100958.84
2018-12-25T19:51:27.593Z,100967.02
2018-12-25T19:57:32.168Z,100956.29
2018-12-25T20:03:40.425Z,100950.80
2018-12-25T20:10:10.287Z,100942.60
2018-12-25T20:16:52.952Z,100951.92
2018-12-25T20:23:30.072Z,100953.49
2018-12-25T20:30:01.645Z,100947.98
2018-12-25T20:36:25.734Z,100942.71
2018-12-25T20:43:13.578Z,100941.73
2018-12-25T20:49:41.900Z,100933.09
2018-12-25T20:56:02.951Z,100930.89
2018-12-25T21:02:36.062Z,100931.03
2018-12-25T21:09:34.599Z,100935.11
2018-12-25T21:15:58.748Z,100938.03
2018-12-25T21:22:10.409Z,100946.26
2018-12-25T21:28:13.378Z,100939.26
2018-12-25T21:34:18.286Z,100932.25
2018-12-25T21:40:23.188Z,100926.44
2018-12-25T21:46:28.091Z,100925.97
2018-12-25T21:52:32.869Z,100925.58
2018-12-25T21:58:37.572Z,100925.59
2018-12-25T22:04:42.142Z,100911.82
2018-12-25T22:10:46.703Z,100914.83
2018-12-25T22:16:51.270Z,100916.91
2018-12-25T22:22:55.857Z,100910.28
2018-12-25T22:29:00.473Z,100917.29
2018-12-25T22:35:05.161Z,100914.38
2018-12-25T22:41:09.733Z,100914.63
2018-12-25T22:47:14.306Z,100908.95
2018-12-25T22:53:19.406Z,100913.58
2018-12-25T22:59:24.021Z,100921.28
2018-12-25T23:05:28.661Z,100918.02
2018-12-25T23:11:33.259Z,100917.41
2018-12-25T23:17:37.982Z,100914.52
2018-12-25T23:23:42.551Z,100912.94
2018-12-25T23:29:47.127Z,100902.46
2018-12-25T23:35:53.241Z,100908.50
2018-12-25T23:41:59.447Z,100914.31
2018-12-25T23:48:04.156Z,100911.66
2018-12-25T23:54:08.776Z,100903.95
